Time;durP1;ratioP1;P1;durP2;ratioP2;P2;SDS_P1;SDS_P2;PMS_P1;PMS_P2;Temp;Humidity;BMP_temperature;BMP_pressure;BME280_temperature;BME280_humidity;BME280_pressure;Samples;Min_cycle;Max_cycle;Signal;HPM_P1;HPM_P2
2022/10/16 00:00:48;;;;;;;3.90;2.20;;;16.40;99.90;;;;;;5095420;28;20473;-38
2022/10/16 00:03:18;;;;;;;3.20;2.60;;;16.50;99.90;;;;;;5093379;28;20481;-39
2022/10/16 00:05:47;;;;;;;2.10;2.00;;;16.50;99.90;;;;;;5093901;28;20497;-39
2022/10/16 00:08:14;;;;;;;2.70;1.90;;;16.50;99.90;;;;;;5093859;28;20450;-40
2022/10/16 00:10:41;;;;;;;4.10;2.27;;;16.50;99.90;;;;;;5093318;28;20485;-39
2022/10/16 00:13:09;;;;;;;2.20;1.73;;;16.60;99.90;;;;;;5092196;28;20457;-39
2022/10/16 00:15:39;;;;;;;2.90;2.10;;;16.60;99.90;;;;;;5092446;28;20435;-39
2022/10/16 00:18:06;;;;;;;2.90;1.80;;;16.60;99.90;;;;;;5093350;28;20542;-39
2022/10/16 00:20:36;;;;;;;2.63;2.40;;;16.60;99.90;;;;;;5095999;28;20466;-37
2022/10/16 00:23:05;;;;;;;3.70;1.97;;;16.60;99.90;;;;;;5097954;28;20453;-38
2022/10/16 00:25:36;;;;;;;4.10;1.90;;;16.70;99.90;;;;;;5098275;28;20438;-37
2022/10/16 00:28:03;;;;;;;2.27;1.60;;;16.70;99.90;;;;;;5100177;28;20889;-37
2022/10/16 00:30:30;;;;;;;1.93;1.60;;;16.70;99.90;;;;;;5099681;28;20496;-37
2022/10/16 00:32:57;;;;;;;1.60;1.43;;;16.70;99.90;;;;;;5098248;28;20502;-40
2022/10/16 00:35:24;;;;;;;2.00;1.73;;;16.70;99.90;;;;;;5095053;28;20445;-39
2022/10/16 00:37:51;;;;;;;2.20;1.93;;;16.70;99.90;;;;;;5095091;28;20472;-38
2022/10/16 00:40:19;;;;;;;2.23;1.90;;;16.70;99.90;;;;;;5094004;28;20455;-41
2022/10/16 00:42:46;;;;;;;2.20;1.80;;;16.70;99.90;;;;;;5095879;28;20454;-39
2022/10/16 00:45:13;;;;;;;3.40;2.33;;;16.70;99.90;;;;;;5095572;28;20844;-43
2022/10/16 00:47:44;;;;;;;1.50;1.40;;;16.70;99.90;;;;;;5096379;28;20490;-39
2022/10/16 00:50:20;;;;;;;5.57;1.80;;;16.70;99.90;;;;;;5097692;28;20481;-40
2022/10/16 00:52:49;;;;;;;2.67;1.70;;;16.70;99.90;;;;;;5097502;28;20423;-39
2022/10/16 00:55:17;;;;;;;2.93;1.93;;;16.70;99.90;;;;;;5096480;28;20482;-39
2022/10/16 00:57:45;;;;;;;2.20;1.87;;;16.80;99.90;;;;;;5096533;28;20480;-38
2022/10/16 01:00:16;;;;;;;1.83;1.73;;;16.80;99.90;;;;;;5096175;28;20538;-38
2022/10/16 01:02:43;;;;;;;2.03;1.63;;;16.70;99.90;;;;;;5097327;28;20463;-38
2022/10/16 01:05:10;;;;;;;3.00;1.90;;;16.70;99.90;;;;;;5097580;28;20427;-40
2022/10/16 01:07:46;;;;;;;2.40;1.90;;;16.80;99.90;;;;;;5096863;28;20473;-37
2022/10/16 01:10:25;;;;;;;1.70;1.60;;;16.70;99.90;;;;;;5097633;28;20481;-38
2022/10/16 01:13:00;;;;;;;1.70;1.60;;;16.80;99.90;;;;;;5098427;28;20518;-38
2022/10/16 01:15:30;;;;;;;2.10;1.70;;;16.80;99.90;;;;;;5097925;28;20418;-39
2022/10/16 01:18:05;;;;;;;2.23;1.80;;;16.80;99.90;;;;;;5098387;28;20478;-38
2022/10/16 01:20:37;;;;;;;2.40;2.13;;;16.20;99.90;;;;;;5095411;28;20419;-40
2022/10/16 01:23:15;;;;;;;2.13;1.83;;;16.70;99.90;;;;;;5095319;28;20426;-41
2022/10/16 01:26:00;;;;;;;2.23;2.03;;;16.70;99.90;;;;;;5094386;28;20490;-39
2022/10/16 01:28:35;;;;;;;2.27;1.97;;;16.60;99.90;;;;;;5094503;28;20446;-39
2022/10/16 01:31:03;;;;;;;2.90;1.77;;;16.60;99.90;;;;;;5094225;28;20495;-41
2022/10/16 01:33:35;;;;;;;1.93;1.80;;;16.60;99.90;;;;;;5094526;28;20462;-39
2022/10/16 01:36:11;;;;;;;1.97;1.50;;;16.50;99.90;;;;;;5094521;28;20462;-40
2022/10/16 01:38:41;;;;;;;1.63;1.50;;;16.50;99.90;;;;;;5094578;28;20422;-39
2022/10/16 01:41:12;;;;;;;2.00;1.80;;;16.50;99.90;;;;;;5094374;28;20462;-39
2022/10/16 01:43:44;;;;;;;1.50;1.30;;;16.40;99.90;;;;;;5095050;28;20521;-37
2022/10/16 01:46:13;;;;;;;3.30;1.63;;;16.40;99.90;;;;;;5094783;28;20506;-41
2022/10/16 01:48:41;;;;;;;1.87;1.67;;;16.40;99.90;;;;;;5094235;28;20453;-38
2022/10/16 01:51:15;;;;;;;1.90;1.67;;;16.40;99.90;;;;;;5094658;28;20541;-39
2022/10/16 01:53:44;;;;;;;2.37;1.63;;;16.30;99.90;;;;;;5093606;28;20526;-39
2022/10/16 01:56:13;;;;;;;2.43;1.60;;;16.30;99.90;;;;;;5094889;28;20444;-39
2022/10/16 01:58:46;;;;;;;2.13;1.77;;;16.30;99.90;;;;;;5094188;28;20473;-38
2022/10/16 02:01:17;;;;;;;1.70;1.60;;;16.40;99.90;;;;;;5094222;28;20498;-38
2022/10/16 02:03:47;;;;;;;2.17;1.57;;;16.40;99.90;;;;;;5093926;28;20530;-39
2022/10/16 02:06:14;;;;;;;1.60;1.50;;;16.40;99.90;;;;;;5093441;28;20430;-39
2022/10/16 02:08:43;;;;;;;1.83;1.43;;;16.30;99.90;;;;;;5093902;28;20453;-38
2022/10/16 02:11:11;;;;;;;1.90;1.70;;;16.40;99.90;;;;;;5094342;28;20488;-40
2022/10/16 02:13:41;;;;;;;2.43;1.80;;;16.40;99.90;;;;;;5095152;28;20471;-39
2022/10/16 02:16:11;;;;;;;1.90;1.53;;;16.50;99.90;;;;;;5095763;28;20470;-40
2022/10/16 02:18:38;;;;;;;3.20;2.20;;;16.40;99.90;;;;;;5095938;28;20451;-39
2022/10/16 02:21:11;;;;;;;2.13;1.87;;;16.50;99.90;;;;;;5095592;28;20469;-40
2022/10/16 02:23:46;;;;;;;3.83;2.73;;;16.50;99.90;;;;;;5096028;28;20490;-40
2022/10/16 02:26:19;;;;;;;5.00;3.00;;;16.50;99.90;;;;;;5095908;28;20490;-38
2022/10/16 02:28:53;;;;;;;4.03;2.90;;;16.50;99.90;;;;;;5095863;28;20431;-38
2022/10/16 02:31:28;;;;;;;5.40;2.93;;;16.50;99.90;;;;;;5095620;28;20533;-40
2022/10/16 02:34:00;;;;;;;2.90;2.10;;;16.50;99.90;;;;;;5096101;28;20495;-39
2022/10/16 02:36:28;;;;;;;6.20;2.03;;;16.50;99.90;;;;;;5092930;28;20770;-42
2022/10/16 02:38:56;;;;;;;4.43;2.70;;;16.50;99.90;;;;;;5091816;28;20470;-38
2022/10/16 02:41:24;;;;;;;3.20;2.10;;;16.50;99.90;;;;;;5091723;28;20518;-39
2022/10/16 02:43:50;;;;;;;2.30;1.70;;;16.50;99.90;;;;;;5092176;28;20466;-40
2022/10/16 02:46:18;;;;;;;1.83;1.73;;;16.50;99.90;;;;;;5092076;28;20526;-39
2022/10/16 02:48:47;;;;;;;2.00;1.40;;;16.50;99.90;;;;;;5094197;28;20526;-40
2022/10/16 02:51:14;;;;;;;1.87;1.40;;;16.60;99.90;;;;;;5096739;28;20459;-39
2022/10/16 02:53:41;;;;;;;1.60;1.50;;;16.50;99.90;;;;;;5096882;28;20454;-40
2022/10/16 02:56:08;;;;;;;2.07;1.60;;;16.50;99.90;;;;;;5096675;28;20423;-39
2022/10/16 02:58:38;;;;;;;1.80;1.40;;;16.60;99.90;;;;;;5096570;28;20843;-38
2022/10/16 03:01:05;;;;;;;1.90;1.50;;;16.60;99.90;;;;;;5096313;28;20795;-40
2022/10/16 03:03:31;;;;;;;4.40;1.47;;;16.50;99.90;;;;;;5096567;28;20900;-39
2022/10/16 03:06:00;;;;;;;1.90;1.50;;;16.50;99.90;;;;;;5096052;28;20526;-41
2022/10/16 03:08:26;;;;;;;1.50;1.13;;;16.50;99.90;;;;;;5096838;28;20426;-38
2022/10/16 03:10:53;;;;;;;1.63;1.47;;;16.50;99.90;;;;;;5096688;28;20492;-42
2022/10/16 03:13:21;;;;;;;2.50;1.50;;;16.50;99.90;;;;;;5096453;28;20445;-40
2022/10/16 03:15:48;;;;;;;1.63;1.33;;;16.40;99.90;;;;;;5096542;28;20431;-40
2022/10/16 03:18:15;;;;;;;1.77;1.53;;;16.40;99.90;;;;;;5096229;28;20466;-38
2022/10/16 03:20:43;;;;;;;1.73;1.27;;;16.40;99.90;;;;;;5096050;28;20430;-39
2022/10/16 03:23:11;;;;;;;2.60;1.80;;;16.40;99.90;;;;;;5096314;28;20478;-41
2022/10/16 03:25:38;;;;;;;2.03;1.30;;;16.40;99.90;;;;;;5096793;28;20502;-40
2022/10/16 03:28:04;;;;;;;3.07;1.70;;;16.30;99.90;;;;;;5096416;28;20442;-39
2022/10/16 03:30:31;;;;;;;2.67;1.90;;;16.30;99.90;;;;;;5096581;28;20472;-38
2022/10/16 03:33:00;;;;;;;2.07;1.50;;;16.30;99.90;;;;;;5096764;28;20430;-39
2022/10/16 03:35:27;;;;;;;3.07;1.70;;;16.30;99.90;;;;;;5096407;28;20497;-45
2022/10/16 03:37:54;;;;;;;1.87;1.57;;;16.30;99.90;;;;;;5096658;28;20442;-39
2022/10/16 03:40:22;;;;;;;2.10;1.90;;;16.30;99.90;;;;;;5096370;28;20470;-40
2022/10/16 03:42:50;;;;;;;2.50;1.77;;;16.20;99.90;;;;;;5096138;28;20444;-39
2022/10/16 03:45:24;;;;;;;2.33;1.67;;;16.20;99.90;;;;;;5096139;28;20438;-38
2022/10/16 03:47:51;;;;;;;1.87;1.60;;;16.20;99.90;;;;;;5096585;28;20499;-40
2022/10/16 03:50:17;;;;;;;2.20;2.00;;;16.20;99.90;;;;;;5095615;28;20520;-40
2022/10/16 03:52:44;;;;;;;3.43;1.50;;;16.10;99.90;;;;;;5096181;28;20541;-39
2022/10/16 03:55:11;;;;;;;2.20;1.80;;;16.10;99.90;;;;;;5099226;28;20434;-38
2022/10/16 03:57:41;;;;;;;2.57;1.80;;;16.00;99.90;;;;;;5099085;28;20466;-39
2022/10/16 04:00:12;;;;;;;2.23;1.50;;;16.00;99.90;;;;;;5099266;28;20449;-40
2022/10/16 04:02:38;;;;;;;2.20;1.67;;;16.00;99.90;;;;;;5099151;28;20485;-40
2022/10/16 04:05:06;;;;;;;2.03;1.77;;;16.00;99.90;;;;;;5099047;28;20458;-40
2022/10/16 04:07:41;;;;;;;2.37;1.80;;;16.00;99.90;;;;;;5099759;28;20442;-39
2022/10/16 04:10:09;;;;;;;2.43;1.97;;;16.00;99.90;;;;;;5099783;28;20422;-37
2022/10/16 04:12:35;;;;;;;3.93;2.10;;;16.00;99.90;;;;;;5099654;28;20498;-38
2022/10/16 04:15:06;;;;;;;1.60;1.30;;;16.00;99.90;;;;;;5099388;28;20506;-37
2022/10/16 04:17:33;;;;;;;1.93;1.60;;;16.00;99.90;;;;;;5099221;28;20457;-39
2022/10/16 04:20:03;;;;;;;3.43;1.97;;;16.00;99.90;;;;;;5099150;28;20465;-37
2022/10/16 04:22:32;;;;;;;1.83;1.73;;;16.00;99.90;;;;;;5098747;28;20442;-38
2022/10/16 04:25:00;;;;;;;1.67;1.53;;;16.00;99.90;;;;;;5098716;28;20472;-39
2022/10/16 04:27:28;;;;;;;1.97;1.70;;;16.00;99.90;;;;;;5098671;28;20490;-38
2022/10/16 04:29:54;;;;;;;2.23;1.80;;;16.10;99.90;;;;;;5099033;28;20462;-36
2022/10/16 04:32:23;;;;;;;2.77;1.83;;;16.10;99.90;;;;;;5098382;28;20454;-36
2022/10/16 04:34:49;;;;;;;4.50;1.93;;;16.10;99.90;;;;;;5099106;28;20461;-39
2022/10/16 04:37:19;;;;;;;2.43;1.60;;;16.20;99.90;;;;;;5097185;28;20499;-38
2022/10/16 04:39:48;;;;;;;2.17;1.80;;;16.10;99.90;;;;;;5098805;28;20448;-38
2022/10/16 04:42:16;;;;;;;1.93;1.43;;;16.10;99.90;;;;;;5098044;28;20469;-39
2022/10/16 04:44:42;;;;;;;1.97;1.77;;;16.10;99.90;;;;;;5098361;28;20461;-39
2022/10/16 04:47:14;;;;;;;3.00;1.97;;;16.10;99.90;;;;;;5098553;28;20552;-39
2022/10/16 04:49:42;;;;;;;1.97;1.77;;;16.10;99.90;;;;;;5098784;28;20415;-38
2022/10/16 04:52:13;;;;;;;3.20;2.00;;;16.10;99.90;;;;;;5098619;28;20568;-39
2022/10/16 04:54:44;;;;;;;3.80;3.50;;;16.10;99.90;;;;;;5098116;28;20434;-39
2022/10/16 04:57:11;;;;;;;2.37;1.40;;;16.10;99.90;;;;;;5098385;28;20450;-39
2022/10/16 04:59:40;;;;;;;2.30;2.03;;;16.10;99.90;;;;;;5098344;28;20530;-39
2022/10/16 05:02:09;;;;;;;2.00;1.73;;;16.10;99.90;;;;;;5098672;28;20513;-38
2022/10/16 05:04:37;;;;;;;1.90;1.70;;;16.10;99.90;;;;;;5097169;28;20462;-39
2022/10/16 05:07:05;;;;;;;2.30;2.10;;;16.10;99.90;;;;;;5098598;28;20446;-35
2022/10/16 05:09:33;;;;;;;3.90;2.50;;;16.00;99.90;;;;;;5099729;28;20466;-39
2022/10/16 05:12:00;;;;;;;3.07;2.33;;;16.00;99.90;;;;;;5099903;28;20466;-38
2022/10/16 05:14:27;;;;;;;2.20;1.87;;;16.00;99.90;;;;;;5100258;28;20469;-39
2022/10/16 05:16:54;;;;;;;2.73;1.70;;;15.90;99.90;;;;;;5098211;28;20462;-39
2022/10/16 05:19:25;;;;;;;1.83;1.63;;;15.90;99.90;;;;;;5097665;28;20546;-38
2022/10/16 05:21:53;;;;;;;2.33;2.13;;;15.80;99.90;;;;;;5098008;28;20490;-39
2022/10/16 05:24:23;;;;;;;2.77;2.40;;;15.90;99.90;;;;;;5098404;28;20434;-36
2022/10/16 05:26:50;;;;;;;3.27;1.60;;;15.90;99.90;;;;;;5098044;28;20501;-38
2022/10/16 05:29:19;;;;;;;1.93;1.40;;;15.90;99.90;;;;;;5097692;28;20449;-38
2022/10/16 05:31:46;;;;;;;2.43;1.93;;;15.90;99.90;;;;;;5097878;28;20487;-38
2022/10/16 05:36:51;;;;;;;4.30;2.00;;;15.80;99.90;;;;;;4988191;26;20479;-46
2022/10/16 05:39:18;;;;;;;2.10;1.90;;;15.80;99.90;;;;;;5077021;28;20784;-40
2022/10/16 05:41:53;;;;;;;2.60;2.40;;;15.80;99.90;;;;;;5076741;28;20455;-46
2022/10/16 05:44:26;;;;;;;2.10;1.90;;;15.80;99.90;;;;;;5077666;28;20427;-45
2022/10/16 05:46:56;;;;;;;6.27;2.20;;;15.90;99.90;;;;;;5077407;28;20428;-44
2022/10/16 05:49:23;;;;;;;2.53;2.33;;;15.90;99.90;;;;;;5077840;28;20471;-43
2022/10/16 05:51:49;;;;;;;2.53;2.13;;;15.80;99.90;;;;;;5077567;28;20781;-42
2022/10/16 05:54:16;;;;;;;2.40;2.20;;;15.80;99.90;;;;;;5077616;28;20498;-41
2022/10/16 05:56:43;;;;;;;2.00;1.90;;;15.80;99.90;;;;;;5077557;28;20438;-47
2022/10/16 05:59:11;;;;;;;5.60;2.33;;;15.80;99.90;;;;;;5077401;28;20455;-46
2022/10/16 06:01:38;;;;;;;1.70;1.60;;;15.70;99.90;;;;;;5077103;28;20480;-43
2022/10/16 06:04:05;;;;;;;2.50;1.93;;;15.70;99.90;;;;;;5076745;28;20439;-43
2022/10/16 06:06:32;;;;;;;2.30;2.10;;;15.60;99.90;;;;;;5076862;28;20439;-45
2022/10/16 06:09:01;;;;;;;4.20;2.20;;;15.70;99.90;;;;;;5076557;28;20519;-46
2022/10/16 06:11:30;;;;;;;3.30;2.20;;;15.70;99.90;;;;;;5076317;28;20479;-46
2022/10/16 06:14:01;;;;;;;3.60;1.80;;;15.70;99.90;;;;;;5078337;28;20453;-46
2022/10/16 06:16:32;;;;;;;3.40;2.10;;;15.70;99.90;;;;;;5079455;28;20449;-45
2022/10/16 06:18:59;;;;;;;2.67;2.00;;;15.80;99.90;;;;;;5080656;28;20756;-44
2022/10/16 06:21:29;;;;;;;3.00;2.03;;;15.80;99.90;;;;;;5081344;28;20430;-43
2022/10/16 06:23:57;;;;;;;2.80;2.10;;;15.80;99.90;;;;;;5078800;28;20420;-43
2022/10/16 06:26:29;;;;;;;3.70;2.20;;;15.80;99.90;;;;;;5075929;28;20514;-42
2022/10/16 06:28:56;;;;;;;2.87;1.97;;;15.90;99.90;;;;;;5080180;28;20453;-44
2022/10/16 06:31:27;;;;;;;3.50;2.40;;;15.90;99.90;;;;;;5079022;28;20479;-47
2022/10/16 06:33:57;;;;;;;3.03;2.70;;;16.00;99.90;;;;;;5078660;28;20459;-43
2022/10/16 06:36:27;;;;;;;3.77;2.80;;;16.00;99.90;;;;;;5087876;28;20446;-44
2022/10/16 06:38:54;;;;;;;4.00;2.80;;;16.00;99.90;;;;;;5080611;28;20451;-43
2022/10/16 06:41:24;;;;;;;3.00;2.20;;;16.00;99.90;;;;;;5086848;28;20517;-44
2022/10/16 06:43:53;;;;;;;2.50;1.90;;;16.10;99.90;;;;;;5082494;28;20879;-41
2022/10/16 06:46:22;;;;;;;1.80;1.70;;;16.10;99.90;;;;;;5081761;28;20468;-42
2022/10/16 06:48:49;;;;;;;3.47;2.50;;;16.10;99.90;;;;;;5092064;28;20466;-39
2022/10/16 06:51:19;;;;;;;3.90;2.70;;;16.20;99.90;;;;;;5080820;28;20462;-44
2022/10/16 06:53:48;;;;;;;6.43;2.03;;;16.20;99.90;;;;;;5097028;28;20510;-40
2022/10/16 06:56:17;;;;;;;2.70;2.30;;;16.20;99.90;;;;;;5093363;28;20450;-42
2022/10/16 06:58:44;;;;;;;2.20;2.00;;;16.20;99.90;;;;;;5090154;28;20501;-44
2022/10/16 07:01:12;;;;;;;3.57;2.13;;;16.30;99.90;;;;;;5080404;28;20455;-44
2022/10/16 07:03:40;;;;;;;2.20;1.73;;;16.30;99.90;;;;;;5078259;28;20431;-38
2022/10/16 07:06:09;;;;;;;2.93;2.10;;;16.30;99.90;;;;;;5081287;28;20437;-45
2022/10/16 07:08:40;;;;;;;2.20;1.90;;;16.30;99.90;;;;;;5078603;28;20423;-45
2022/10/16 07:11:09;;;;;;;3.27;1.90;;;16.40;99.90;;;;;;5075224;28;20408;-45
2022/10/16 07:13:36;;;;;;;2.47;2.07;;;16.50;99.90;;;;;;5083890;28;20442;-46
2022/10/16 07:16:06;;;;;;;2.73;2.07;;;16.70;99.90;;;;;;5079710;28;20411;-46
2022/10/16 07:18:33;;;;;;;1.43;1.33;;;16.80;99.90;;;;;;5086825;28;20470;-44
2022/10/16 07:21:05;;;;;;;4.37;1.70;;;16.90;99.90;;;;;;5085673;28;20458;-39
2022/10/16 07:23:31;;;;;;;2.33;1.70;;;16.90;99.90;;;;;;5074914;28;20471;-37
2022/10/16 07:26:00;;;;;;;1.73;1.63;;;17.00;99.90;;;;;;5076024;28;20431;-44
2022/10/16 07:28:27;;;;;;;2.90;1.50;;;17.00;99.90;;;;;;5076520;28;20463;-46
2022/10/16 07:30:53;;;;;;;2.73;2.43;;;17.10;99.90;;;;;;5077221;28;20439;-46
2022/10/16 07:33:20;;;;;;;3.13;1.77;;;17.10;99.90;;;;;;5076718;28;20513;-43
2022/10/16 07:35:51;;;;;;;2.10;1.50;;;17.20;99.90;;;;;;5077331;28;20470;-43
2022/10/16 07:38:18;;;;;;;2.27;1.40;;;17.30;99.90;;;;;;5075666;28;20439;-45
2022/10/16 07:40:45;;;;;;;2.53;1.80;;;17.40;99.90;;;;;;5075701;28;20463;-43
2022/10/16 07:43:14;;;;;;;2.23;1.70;;;17.50;99.90;;;;;;5074529;28;20415;-42
2022/10/16 07:45:51;;;;;;;2.23;1.57;;;17.60;99.90;;;;;;5075286;28;20482;-42
2022/10/16 07:48:20;;;;;;;1.70;1.43;;;17.60;99.90;;;;;;5075063;28;20478;-42
2022/10/16 07:50:47;;;;;;;1.90;1.70;;;17.60;99.90;;;;;;5074886;28;20503;-43
2022/10/16 07:53:16;;;;;;;2.20;1.90;;;17.60;99.90;;;;;;5074918;28;20534;-42
2022/10/16 07:55:45;;;;;;;1.77;1.47;;;17.60;99.90;;;;;;5074953;28;20449;-45
2022/10/16 07:58:13;;;;;;;2.33;1.60;;;17.60;99.90;;;;;;5074716;28;20459;-45
2022/10/16 08:00:40;;;;;;;2.57;1.67;;;17.60;99.90;;;;;;5074783;28;20454;-41
2022/10/16 08:03:07;;;;;;;2.23;1.77;;;17.60;99.90;;;;;;5074529;28;20469;-45
2022/10/16 08:05:34;;;;;;;1.80;1.60;;;17.60;99.90;;;;;;5075145;28;20447;-43
2022/10/16 08:08:02;;;;;;;1.43;1.33;;;17.60;99.90;;;;;;5075137;28;20463;-41
2022/10/16 08:10:29;;;;;;;2.40;1.23;;;17.70;99.90;;;;;;5075320;28;20426;-40
2022/10/16 08:12:59;;;;;;;1.93;1.40;;;17.70;99.90;;;;;;5075716;28;20479;-43
2022/10/16 08:15:30;;;;;;;1.60;1.37;;;17.80;99.90;;;;;;5075658;28;20427;-46
2022/10/16 08:17:58;;;;;;;1.90;1.60;;;17.70;99.90;;;;;;5075585;28;20453;-43
2022/10/16 08:20:26;;;;;;;1.83;1.50;;;17.80;99.90;;;;;;5076434;28;20457;-44
2022/10/16 08:22:56;;;;;;;2.07;1.30;;;17.80;99.90;;;;;;5077232;28;20420;-43
2022/10/16 08:25:25;;;;;;;2.40;1.53;;;17.90;99.90;;;;;;5076927;28;20463;-41
2022/10/16 08:27:52;;;;;;;2.93;1.50;;;17.90;99.90;;;;;;5075872;28;20443;-43
2022/10/16 08:30:20;;;;;;;1.40;1.10;;;18.00;99.90;;;;;;5074624;28;20494;-46
2022/10/16 08:32:48;;;;;;;1.80;1.70;;;18.10;99.90;;;;;;5074996;28;20469;-42
2022/10/16 08:35:15;;;;;;;2.77;1.40;;;18.10;99.90;;;;;;5074613;28;20455;-47
2022/10/16 08:37:43;;;;;;;1.50;1.40;;;18.10;99.90;;;;;;5075181;28;20452;-43
2022/10/16 08:40:18;;;;;;;4.50;1.60;;;18.20;99.90;;;;;;5076185;28;20443;-42
2022/10/16 08:43:01;;;;;;;1.90;1.33;;;18.30;99.90;;;;;;5078529;28;20518;-44
2022/10/16 08:45:42;;;;;;;2.70;1.33;;;18.40;99.90;;;;;;5078415;28;20443;-47
2022/10/16 08:48:19;;;;;;;1.97;1.80;;;18.40;99.90;;;;;;5078539;28;20847;-39
2022/10/16 08:50:48;;;;;;;2.73;1.90;;;18.50;99.90;;;;;;5078227;28;20495;-41
2022/10/16 08:53:18;;;;;;;1.60;1.50;;;18.50;99.90;;;;;;5078458;28;20485;-46
2022/10/16 08:55:50;;;;;;;4.30;1.63;;;18.50;99.90;;;;;;5078194;28;20439;-40
2022/10/16 08:58:19;;;;;;;1.57;1.13;;;18.50;99.90;;;;;;5078038;28;20467;-42
2022/10/16 09:00:49;;;;;;;1.30;1.13;;;18.50;99.90;;;;;;5078574;28;20495;-45
2022/10/16 09:03:32;;;;;;;2.13;1.60;;;18.50;99.90;;;;;;5077651;28;20447;-42
2022/10/16 09:06:31;;;;;;;1.60;1.43;;;18.50;99.90;;;;;;5077386;28;20434;-43
2022/10/16 09:09:26;;;;;;;2.53;2.30;;;18.60;99.90;;;;;;5072137;28;20451;-40
2022/10/16 09:12:01;;;;;;;2.00;1.60;;;18.70;99.90;;;;;;5078076;28;20454;-40
2022/10/16 09:14:51;;;;;;;2.60;2.00;;;18.90;99.90;;;;;;5078327;28;20422;-41
2022/10/16 09:17:30;;;;;;;2.47;1.40;;;19.20;99.90;;;;;;5075138;28;20454;-46
2022/10/16 09:20:13;;;;;;;3.50;1.60;;;19.30;99.90;;;;;;5078295;28;20399;-41
2022/10/16 09:22:40;;;;;;;6.70;1.50;;;19.40;99.90;;;;;;5078341;28;20498;-47
2022/10/16 09:25:13;;;;;;;1.97;1.77;;;19.50;99.90;;;;;;5078020;28;20445;-41
2022/10/16 09:27:40;;;;;;;1.77;1.47;;;19.50;99.90;;;;;;5077998;28;20467;-43
2022/10/16 09:30:13;;;;;;;1.63;1.53;;;19.60;99.90;;;;;;5077978;28;20444;-42
2022/10/16 09:32:45;;;;;;;1.83;1.43;;;19.80;99.90;;;;;;5078011;28;20475;-41
2022/10/16 09:35:18;;;;;;;1.93;1.30;;;20.30;99.90;;;;;;5077811;28;20478;-41
2022/10/16 09:37:47;;;;;;;3.07;1.60;;;20.90;99.90;;;;;;5078226;28;20448;-45
2022/10/16 09:40:26;;;;;;;1.20;1.10;;;21.20;99.90;;;;;;5078069;28;20441;-46
2022/10/16 09:43:02;;;;;;;1.93;1.30;;;21.10;99.90;;;;;;5077944;28;20526;-45
2022/10/16 09:45:29;;;;;;;1.30;1.20;;;21.40;99.90;;;;;;5078126;28;20578;-41
2022/10/16 09:47:56;;;;;;;1.40;1.30;;;22.10;99.90;;;;;;5077331;28;20506;-41
2022/10/16 09:50:26;;;;;;;1.03;0.90;;;23.10;99.90;;;;;;5077186;28;20466;-47
2022/10/16 09:53:05;;;;;;;1.30;1.13;;;24.00;99.90;;;;;;5078276;28;20475;-43
2022/10/16 09:55:33;;;;;;;1.67;1.50;;;23.70;99.90;;;;;;5077917;28;20427;-45
2022/10/16 09:58:00;;;;;;;2.10;1.50;;;23.40;99.90;;;;;;5077882;28;20463;-42
2022/10/16 10:00:27;;;;;;;2.30;1.50;;;22.90;99.90;;;;;;5077842;28;20461;-43
2022/10/16 10:02:55;;;;;;;7.43;3.53;;;22.50;99.90;;;;;;5077770;28;20509;-42
2022/10/16 10:05:28;;;;;;;2.17;1.97;;;22.30;99.90;;;;;;5077394;28;20467;-40
2022/10/16 10:07:58;;;;;;;2.13;1.50;;;22.40;99.90;;;;;;5077419;28;20435;-40
2022/10/16 10:10:28;;;;;;;1.70;1.50;;;22.60;99.90;;;;;;5077916;28;20435;-42
2022/10/16 10:12:56;;;;;;;1.40;1.30;;;22.30;99.90;;;;;;5077946;28;20455;-44
2022/10/16 10:15:23;;;;;;;1.63;1.33;;;22.10;99.90;;;;;;5078268;28;20443;-41
2022/10/16 10:17:52;;;;;;;2.73;1.70;;;21.90;99.90;;;;;;5077504;28;20448;-42
2022/10/16 10:20:30;;;;;;;2.30;1.57;;;21.70;99.90;;;;;;5077745;28;20431;-42
2022/10/16 10:22:58;;;;;;;4.10;2.07;;;21.50;99.90;;;;;;5077336;28;20490;-41
2022/10/16 10:25:48;;;;;;;2.83;1.93;;;21.30;99.90;;;;;;5077343;28;20455;-41
2022/10/16 10:28:32;;;;;;;3.47;2.43;;;22.30;99.90;;;;;;5077455;28;20473;-44
2022/10/16 10:31:04;;;;;;;3.87;1.70;;;21.10;99.90;;;;;;5077490;28;20459;-45
2022/10/16 10:33:42;;;;;;;1.63;1.53;;;20.90;99.90;;;;;;5076887;28;20490;-42
2022/10/16 10:36:31;;;;;;;2.13;1.30;;;20.90;99.90;;;;;;5076393;28;20443;-48
2022/10/16 10:39:01;;;;;;;1.70;1.30;;;20.80;99.90;;;;;;5076550;28;20445;-42
2022/10/16 10:41:59;;;;;;;2.27;1.40;;;20.90;99.90;;;;;;5076082;28;20498;-44
2022/10/16 10:44:50;;;;;;;1.40;1.27;;;20.90;99.90;;;;;;5076311;28;20501;-42
2022/10/16 10:47:27;;;;;;;1.83;1.40;;;21.00;99.90;;;;;;5075861;28;20419;-42
2022/10/16 10:50:05;;;;;;;2.60;1.30;;;21.10;99.90;;;;;;5076576;28;20450;-41
2022/10/16 10:52:44;;;;;;;2.50;1.40;;;21.50;99.90;;;;;;5076826;28;20463;-40
2022/10/16 10:55:20;;;;;;;2.20;1.47;;;21.70;99.90;;;;;;5076830;28;20534;-40
2022/10/16 10:58:02;;;;;;;1.60;1.30;;;21.90;99.90;;;;;;5077193;28;20443;-47
2022/10/16 11:00:41;;;;;;;1.93;1.30;;;22.00;99.90;;;;;;5077483;28;20499;-40
2022/10/16 11:03:25;;;;;;;1.80;1.33;;;22.00;99.90;;;;;;5077424;28;20443;-41
2022/10/16 11:05:56;;;;;;;2.60;1.50;;;21.90;99.90;;;;;;5078127;28;20427;-39
2022/10/16 11:08:29;;;;;;;1.60;1.37;;;21.90;99.90;;;;;;5078011;28;20459;-39
2022/10/16 11:11:01;;;;;;;3.30;1.33;;;21.70;99.90;;;;;;5078208;28;20506;-40
2022/10/16 11:13:34;;;;;;;1.80;1.47;;;21.60;99.90;;;;;;5077892;28;20502;-40
2022/10/16 11:16:07;;;;;;;5.53;1.60;;;21.70;99.90;;;;;;5077852;28;20479;-40
2022/10/16 11:18:45;;;;;;;4.40;1.90;;;21.70;99.90;;;;;;5076880;28;20471;-47
2022/10/16 11:21:15;;;;;;;3.83;1.37;;;21.80;99.90;;;;;;5075673;28;20518;-42
2022/10/16 11:23:49;;;;;;;3.20;1.40;;;21.80;99.90;;;;;;5075405;28;20458;-41
2022/10/16 11:26:21;;;;;;;1.57;1.23;;;21.80;99.90;;;;;;5075821;28;20431;-45
2022/10/16 11:28:51;;;;;;;1.50;1.40;;;21.60;99.90;;;;;;5075348;28;20455;-42
2022/10/16 11:31:25;;;;;;;1.10;1.00;;;21.40;99.90;;;;;;5075424;28;20447;-43
2022/10/16 11:34:02;;;;;;;1.20;1.10;;;21.20;99.90;;;;;;5075374;28;20523;-47
2022/10/16 11:36:36;;;;;;;1.40;1.30;;;21.10;99.90;;;;;;5075470;28;20453;-41
2022/10/16 11:39:15;;;;;;;2.37;1.43;;;21.00;99.90;;;;;;5075913;28;20428;-44
2022/10/16 11:41:48;;;;;;;1.10;1.00;;;21.00;99.90;;;;;;5075765;28;20450;-42
2022/10/16 11:44:40;;;;;;;1.90;1.63;;;21.10;99.90;;;;;;5075183;28;20447;-45
2022/10/16 11:47:22;;;;;;;1.20;1.03;;;21.10;99.90;;;;;;5072560;28;20515;-45
2022/10/16 11:49:53;;;;;;;2.17;1.43;;;21.20;99.90;;;;;;5076025;28;20435;-42
2022/10/16 11:52:25;;;;;;;1.30;1.10;;;21.30;99.90;;;;;;5075373;28;20498;-41
2022/10/16 11:54:56;;;;;;;1.20;1.10;;;21.40;99.90;;;;;;5075192;28;20415;-43
2022/10/16 11:57:27;;;;;;;1.20;0.90;;;21.40;99.90;;;;;;5075162;28;20467;-44
2022/10/16 11:59:59;;;;;;;1.20;1.10;;;21.40;99.90;;;;;;5075551;28;20446;-44
2022/10/16 12:02:53;;;;;;;1.53;1.27;;;21.30;99.90;;;;;;5075324;28;20463;-40
2022/10/16 12:05:25;;;;;;;1.20;1.00;;;21.10;99.90;;;;;;5075680;28;20419;-40
2022/10/16 12:08:04;;;;;;;1.30;1.10;;;21.00;99.90;;;;;;5075036;28;20464;-45
2022/10/16 12:10:36;;;;;;;1.77;1.40;;;20.80;99.90;;;;;;5075201;28;20412;-40
2022/10/16 12:13:03;;;;;;;1.40;1.00;;;20.80;99.90;;;;;;5075038;28;20491;-40
2022/10/16 12:15:32;;;;;;;1.70;1.30;;;20.80;99.90;;;;;;5078914;28;20419;-45
2022/10/16 12:17:59;;;;;;;1.40;1.30;;;20.80;99.90;;;;;;5078871;28;20470;-42
2022/10/16 12:20:30;;;;;;;1.87;1.67;;;20.70;99.90;;;;;;5079437;28;20454;-44
2022/10/16 12:23:00;;;;;;;2.90;1.40;;;20.80;99.90;;;;;;5079442;28;20466;-46
2022/10/16 12:25:29;;;;;;;2.07;1.50;;;21.00;99.90;;;;;;5078771;28;20453;-43
2022/10/16 12:28:05;;;;;;;1.20;1.10;;;21.10;99.90;;;;;;5079734;28;20595;-40
2022/10/16 12:30:34;;;;;;;1.30;1.13;;;21.10;99.90;;;;;;5080304;28;20459;-42
2022/10/16 12:33:03;;;;;;;2.50;1.70;;;21.20;99.90;;;;;;5080204;28;20904;-39
2022/10/16 12:35:32;;;;;;;1.57;1.23;;;21.30;99.90;;;;;;5079763;28;20477;-42
2022/10/16 12:38:09;;;;;;;1.60;1.30;;;21.40;99.90;;;;;;5080283;28;20511;-45
2022/10/16 12:40:38;;;;;;;1.63;1.30;;;21.60;99.90;;;;;;5078779;28;20438;-43
2022/10/16 12:43:35;;;;;;;1.30;1.20;;;21.70;99.90;;;;;;5079464;28;20426;-46
2022/10/16 12:46:05;;;;;;;1.23;1.00;;;21.80;99.90;;;;;;5078826;28;20471;-46
2022/10/16 12:48:34;;;;;;;1.07;0.97;;;22.00;99.90;;;;;;5078626;28;20423;-44
2022/10/16 12:51:11;;;;;;;1.70;1.17;;;22.00;99.90;;;;;;5078909;28;20503;-42
2022/10/16 12:53:38;;;;;;;1.70;0.90;;;22.00;99.90;;;;;;5078974;28;20458;-48
2022/10/16 12:56:16;;;;;;;1.50;1.00;;;22.00;99.90;;;;;;5078744;28;20463;-46
2022/10/16 12:59:01;;;;;;;36.40;18.83;;;22.00;99.90;;;;;;5078644;28;20798;-46
2022/10/16 13:01:42;;;;;;;2.20;1.80;;;21.90;99.90;;;;;;5078802;28;20823;-42
2022/10/16 13:04:33;;;;;;;3.70;1.27;;;21.90;99.90;;;;;;5078439;28;20441;-46
2022/10/16 13:07:16;;;;;;;3.47;1.30;;;21.80;99.90;;;;;;5078678;28;20495;-45
2022/10/16 13:09:57;;;;;;;1.07;0.83;;;21.80;99.90;;;;;;5078539;28;20446;-43